Wheat Ridge, CO

3:43 PM MDT on August 29, 2014 (GMT -0600)
Crown Hill Park | Change Station
CLOSE
Current Station
Personal Weather Station
Location: Wheat Ridge, CO
Elevation: 5480 ft
Nearby Weather Stations
Active Advisory: Areal Flood Advisory

Elev 5480 ft 39.77 °N, 105.10 °W | Updated 8 minutes ago

Overcast
Overcast
67.9 °F
Feels Like 67.9 °F
N
0.0
Wind Variable Wind from WNW

Today
High -- | Low -- °F
--% Chance of Precip.
Yesterday
High -- | Low -- °F
Precip. -- in
6:25 AM 7:36 PM
Waxing Crescent, 16% visible
Pressure 30.14 in
Visibility 30.0 miles
Clouds Scattered Clouds 2000 ft
Mostly Cloudy 6000 ft
Mostly Cloudy 12000 ft
Dew Point 59 °F
Humidity 72%
Rainfall 0.04 in
Snow Depth Not available.
UV 5 out of 12
Pollen 10.40 out of 12
Ozone Good
PM2.5 Good
Flu Activity Not available.
METAR KBJC 292045Z 24010G15KT 30SM SCT020 BKN060 BKN120 19/05 A3014 RMK TSB45 VIRGA NW

More Conditions Fewer Conditions

Pressure 30.14 in
Visibility 30.0 miles
Clouds Scattered Clouds 2000 ft
Mostly Cloudy 6000 ft
Mostly Cloudy 12000 ft
Dew Point 59 °F
Humidity 72%
Rainfall 0.04 in
Snow Depth Not available.
UV 5 out of 12
Pollen 10.40 out of 12
Ozone Good
PM2.5 Good
Flu Activity Not available.
METAR KBJC 292045Z 24010G15KT 30SM SCT020 BKN060 BKN120 19/05 A3014 RMK TSB45 VIRGA NW

More Conditions Fewer Conditions

Nowcast | as of 1:24 PM MDT on August 29, 2014

Scattered showers and thunderstorms developing over the foothills of Larimer...Boulder and Jefferson counties...will drift southeast across the urban corridor through 3 PM. The storms will produce dangerous cloud to ground lightning...some brief light to moderate rainfall...small hail and wind gusts to 40 mph.

×

10-Day Weather Forecast

Almanac

Astronomy

Aug. 29, 2014 Rise Set
Actual Time 6:25 AM MDT 7:36 PM MDT
Civil Twilight 5:57 AM MDT 8:03 PM MDT
Nautical Twilight 5:24 AM MDT 8:37 PM MDT
Astronomical Twilight 4:49 AM MDT 9:11 PM MDT
Moon 10:17 AM MDT 9:35 PM MDT
Length of Visible Light 14h 06m
Length of Day
13h 10m
Tomorrow will be 2m 29s shorter.
Waxing Crescent, 16% of the Moon is Illuminated
Today
Waxing Crescent
Sep 2
First Quarter
Sep 8
Full
Sep 15
Last Quarter
Sep 24
New

Today's Extremes

State Highs State Lows

Community

WunderPhotos

Upload Photos

1,748,349 photos uploaded!

Nearby

Air Quality

  Air Quality AQ Index Pollutant
Yesterday Good
OZONE
Yesterday Good
PM10
Current Good
OZONE
Current Good
PM2.5
Friday Good
OZONE
Friday Good
PM2.5
Saturday Good
OZONE
Saturday Good
PM2.5

Snow Depth

Station Depth Elevation
Berthoud Summit 0 in 11300 ft
Willow Park 9 in 10700 ft
Lake Irene 0 in 10700 ft
Willow Creek Pass 0 in 9540 ft
Vail Mountain 87 in 10300 ft

Earthquake Activity

City Distance Mag. Time & Date
No recent earthquake activity has been reported nearby.
Minimum magnitude displayed is 2.5.

Coastal Water Temperatures

Place Temperature
No Stations Reporting

Nearby Weather Stations